Time;durP1;ratioP1;P1;durP2;ratioP2;P2;SDS_P1;SDS_P2;PMS_P1;PMS_P2;Temp;Humidity;BMP_temperature;BMP_pressure;BME280_temperature;BME280_humidity;BME280_pressure;Samples;Min_cycle;Max_cycle;Signal;HPM_P1;HPM_P2
2022/02/02 00:01:14;;;;;;;6.93;3.97;;;;;;;;;;5037856;28;20032;-37
2022/02/02 00:03:42;;;;;;;3.97;2.30;;;;;;;;;;5037619;28;20025;-37
2022/02/02 00:07:03;;;;;;;5.70;3.13;;;;;;;;;;5037443;28;20041;-37
2022/02/02 00:09:04;;;;;;;4.75;2.38;;;;;;;;;;5036918;28;20041;-37
2022/02/02 00:17:29;;;;;;;5.97;2.60;;;;;;;;;;5037498;28;20057;-37
2022/02/02 00:20:33;;;;;;;3.78;2.00;;;;;;;;;;5037352;28;20095;-37
2022/02/02 00:22:37;;;;;;;5.75;3.22;;;;;;;;;;5039623;28;20061;-37
2022/02/02 00:27:33;;;;;;;5.68;3.40;;;;;;;;;;5037301;28;20056;-37
2022/02/02 00:30:02;;;;;;;3.22;2.65;;;;;;;;;;5036078;28;20357;-37
2022/02/02 00:35:14;;;;;;;5.32;3.42;;;;;;;;;;5037643;28;20033;-37
2022/02/02 00:37:40;;;;;;;4.10;2.83;;;;;;;;;;5037331;28;20018;-37
2022/02/02 00:40:06;;;;;;;4.05;3.03;;;;;;;;;;5037462;28;20395;-37
2022/02/02 00:42:31;;;;;;;5.28;3.30;;;;;;;;;;5037192;28;20499;-37
2022/02/02 00:44:57;;;;;;;5.47;2.90;;;;;;;;;;5037573;28;20033;-37
2022/02/02 00:47:24;;;;;;;4.00;2.58;;;;;;;;;;5037173;28;20471;-37
2022/02/02 00:49:51;;;;;;;8.25;3.55;;;;;;;;;;5037426;28;20029;-37
2022/02/02 00:52:17;;;;;;;5.53;2.63;;;;;;;;;;5037549;28;20383;-37
2022/02/02 00:54:43;;;;;;;5.72;2.42;;;;;;;;;;5037436;28;20030;-37
2022/02/02 00:57:08;;;;;;;5.85;2.17;;;;;;;;;;5037078;28;20444;-37
2022/02/02 00:59:34;;;;;;;8.88;2.90;;;;;;;;;;5035803;28;20079;-37
2022/02/02 01:02:00;;;;;;;4.28;2.40;;;;;;;;;;5032660;28;20380;-38
2022/02/02 01:04:26;;;;;;;2.55;1.63;;;;;;;;;;5034087;28;20029;-37
2022/02/02 01:09:53;;;;;;;3.55;2.60;;;;;;;;;;5031742;28;20045;-38
2022/02/02 01:17:47;;;;;;;6.63;2.05;;;;;;;;;;5033776;28;20029;-37
2022/02/02 01:28:23;;;;;;;3.65;1.92;;;;;;;;;;5033860;28;20045;-37
2022/02/02 01:30:48;;;;;;;3.38;1.95;;;;;;;;;;5033827;28;20063;-37
2022/02/02 01:33:14;;;;;;;6.95;2.10;;;;;;;;;;5033598;28;20414;-37
2022/02/02 01:35:39;;;;;;;4.90;2.05;;;;;;;;;;5033465;28;20487;-37
2022/02/02 01:38:05;;;;;;;2.13;1.52;;;;;;;;;;5033868;28;20076;-37
2022/02/02 01:40:36;;;;;;;3.00;1.95;;;;;;;;;;5033475;28;20029;-37
2022/02/02 01:43:06;;;;;;;1.52;1.42;;;;;;;;;;5033533;28;20107;-37
2022/02/02 01:45:37;;;;;;;4.25;1.50;;;;;;;;;;5033338;28;20029;-37
2022/02/02 01:50:51;;;;;;;2.40;1.65;;;;;;;;;;5033137;28;20025;-37
2022/02/02 01:56:01;;;;;;;2.53;1.98;;;;;;;;;;5033034;28;20120;-37
2022/02/02 02:01:11;;;;;;;3.83;1.60;;;;;;;;;;5032985;28;20071;-37
2022/02/02 02:03:37;;;;;;;4.38;1.83;;;;;;;;;;5031633;28;20025;-37
2022/02/02 02:06:03;;;;;;;2.85;2.10;;;;;;;;;;5032785;28;20036;-37
2022/02/02 02:08:29;;;;;;;3.15;1.23;;;;;;;;;;5033135;28;20021;-37
2022/02/02 02:10:54;;;;;;;5.10;1.95;;;;;;;;;;5032616;28;20036;-37
2022/02/02 02:15:54;;;;;;;1.73;1.63;;;;;;;;;;5032618;28;20480;-37
2022/02/02 02:18:19;;;;;;;3.72;2.15;;;;;;;;;;5032561;28;20036;-37
2022/02/02 02:20:45;;;;;;;5.30;2.25;;;;;;;;;;5032875;28;20065;-37
2022/02/02 02:23:10;;;;;;;4.38;2.40;;;;;;;;;;5032605;28;20103;-37
2022/02/02 02:25:38;;;;;;;2.83;1.63;;;;;;;;;;5032407;28;20087;-37
2022/02/02 02:28:56;;;;;;;2.58;1.42;;;;;;;;;;5032305;28;20032;-37
2022/02/02 02:31:09;;;;;;;2.38;1.58;;;;;;;;;;5034358;28;20419;-37
2022/02/02 03:00:38;;;;;;;2.95;1.77;;;;;;;;;;5032216;28;20523;-37
2022/02/02 03:30:13;;;;;;;3.03;1.90;;;;;;;;;;5031607;28;20420;-37
2022/02/02 03:56:35;;;;;;;2.38;1.65;;;;;;;;;;5031381;28;20043;-37
2022/02/02 04:04:25;;;;;;;1.95;1.73;;;;;;;;;;5031324;28;20026;-37
2022/02/02 04:07:05;;;;;;;3.00;1.85;;;;;;;;;;5030783;28;20439;-37
2022/02/02 04:09:34;;;;;;;1.65;1.10;;;;;;;;;;5031040;28;20029;-37
2022/02/02 04:39:01;;;;;;;2.70;2.15;;;;;;;;;;5034836;28;20464;-37
2022/02/02 04:51:30;;;;;;;1.90;1.75;;;;;;;;;;5034349;28;20033;-37
2022/02/02 05:19:23;;;;;;;3.75;1.85;;;;;;;;;;5033717;28;20477;-37
2022/02/02 05:53:32;;;;;;;5.28;2.83;;;;;;;;;;5033430;28;20037;-37
2022/02/02 05:56:00;;;;;;;7.28;3.42;;;;;;;;;;5032990;28;20017;-37
2022/02/02 05:58:26;;;;;;;5.55;3.30;;;;;;;;;;5033350;28;20029;-37
2022/02/02 06:00:53;;;;;;;7.70;3.88;;;;;;;;;;5033248;28;20530;-37
2022/02/02 06:03:19;;;;;;;3.90;2.20;;;;;;;;;;5031949;28;20025;-37
2022/02/02 06:05:44;;;;;;;4.97;2.92;;;;;;;;;;5033183;28;20037;-37
2022/02/02 06:08:10;;;;;;;5.30;2.92;;;;;;;;;;5032569;28;20419;-37
2022/02/02 06:10:37;;;;;;;5.00;3.15;;;;;;;;;;5033186;28;20099;-37
2022/02/02 06:13:02;;;;;;;5.18;2.65;;;;;;;;;;5032736;28;20078;-37
2022/02/02 06:15:28;;;;;;;2.95;2.10;;;;;;;;;;5032688;28;20017;-37
2022/02/02 06:17:55;;;;;;;6.57;2.70;;;;;;;;;;5032894;28;20379;-37
2022/02/02 06:20:20;;;;;;;6.53;2.97;;;;;;;;;;5032602;28;20029;-37
2022/02/02 06:22:59;;;;;;;5.47;2.58;;;;;;;;;;5032571;28;20056;-37
2022/02/02 06:25:32;;;;;;;3.78;3.15;;;;;;;;;;5033147;28;20071;-37
2022/02/02 06:27:57;;;;;;;;;;;;;;;;;;5032681;28;20037;-37
2022/02/02 06:30:25;;;;;;;6.72;3.35;;;;;;;;;;5032740;28;19959;-37
2022/02/02 06:32:52;;;;;;;11.85;3.17;;;;;;;;;;5032441;28;20040;-37
2022/02/02 06:35:19;;;;;;;4.55;2.65;;;;;;;;;;5032566;28;20049;-37
2022/02/02 06:37:45;;;;;;;4.57;3.13;;;;;;;;;;5032494;28;20059;-37
2022/02/02 06:40:11;;;;;;;3.00;2.58;;;;;;;;;;5032536;28;20059;-37
2022/02/02 06:42:37;;;;;;;3.78;2.58;;;;;;;;;;5032142;28;20053;-37
2022/02/02 06:45:03;;;;;;;6.53;2.40;;;;;;;;;;5032261;28;20029;-37
2022/02/02 06:47:29;;;;;;;4.75;2.88;;;;;;;;;;5031965;28;20091;-37
2022/02/02 06:50:05;;;;;;;6.97;3.13;;;;;;;;;;5032175;28;20032;-37
2022/02/02 06:52:36;;;;;;;5.40;3.38;;;;;;;;;;5032057;28;20040;-37
2022/02/02 06:55:16;;;;;;;5.18;3.38;;;;;;;;;;5031834;28;20025;-37
2022/02/02 06:57:51;;;;;;;2.80;2.30;;;;;;;;;;5031575;28;20387;-37
2022/02/02 07:02:58;;;;;;;5.43;3.42;;;;;;;;;;5032152;28;20510;-37
2022/02/02 07:11:03;;;;;;;8.13;3.78;;;;;;;;;;5031684;28;20072;-37
2022/02/02 07:16:14;;;;;;;6.65;2.80;;;;;;;;;;5031484;28;20014;-37
2022/02/02 07:26:54;;;;;;;5.45;3.50;;;;;;;;;;5031678;28;20037;-37
2022/02/02 07:32:21;;;;;;;6.03;2.80;;;;;;;;;;5031571;28;20026;-37
2022/02/02 07:35:45;;;;;;;7.07;3.40;;;;;;;;;;5031731;28;20381;-37
2022/02/02 07:37:33;;;;;;;5.72;3.00;;;;;;;;;;5034074;28;20522;-37
2022/02/02 07:40:02;;;;;;;4.13;2.80;;;;;;;;;;5031162;28;20084;-37
2022/02/02 07:42:29;;;;;;;4.22;3.13;;;;;;;;;;5031243;28;20042;-37
2022/02/02 07:45:00;;;;;;;5.13;2.70;;;;;;;;;;5031277;28;20033;-37
2022/02/02 07:47:26;;;;;;;3.45;2.40;;;;;;;;;;5031323;28;20037;-37
2022/02/02 07:49:54;;;;;;;5.20;2.30;;;;;;;;;;5031478;28;20144;-37
2022/02/02 07:52:20;;;;;;;5.00;2.42;;;;;;;;;;5031149;28;20029;-37
2022/02/02 07:54:48;;;;;;;6.82;2.83;;;;;;;;;;5031179;28;20373;-37
2022/02/02 07:57:16;;;;;;;3.92;2.50;;;;;;;;;;5031279;28;20028;-37
2022/02/02 08:02:08;;;;;;;5.53;3.03;;;;;;;;;;5030989;28;20026;-37
2022/02/02 08:04:35;;;;;;;8.15;3.67;;;;;;;;;;5031296;28;20029;-37
2022/02/02 08:07:00;;;;;;;8.75;3.70;;;;;;;;;;5030847;28;20038;-37
2022/02/02 08:11:57;;;;;;;9.93;4.18;;;;;;;;;;5035132;28;20033;-37
2022/02/02 08:14:24;;;;;;;6.68;4.35;;;;;;;;;;5034970;28;20025;-37
2022/02/02 08:16:49;;;;;;;6.63;3.75;;;;;;;;;;5034922;28;20389;-37
2022/02/02 08:19:20;;;;;;;5.32;3.45;;;;;;;;;;5035127;28;20043;-37
2022/02/02 08:21:45;;;;;;;7.20;3.95;;;;;;;;;;5035170;28;20447;-37
2022/02/02 08:24:12;;;;;;;6.32;3.30;;;;;;;;;;5034782;28;20029;-37
2022/02/02 08:26:38;;;;;;;11.48;4.05;;;;;;;;;;5034670;28;20496;-37
2022/02/02 08:29:03;;;;;;;11.85;4.50;;;;;;;;;;5034583;28;20071;-37
2022/02/02 08:31:29;;;;;;;5.47;3.75;;;;;;;;;;5034998;28;20056;-37
2022/02/02 08:34:01;;;;;;;5.05;3.30;;;;;;;;;;5035175;28;20018;-37
2022/02/02 08:36:27;;;;;;;6.95;3.55;;;;;;;;;;5034579;28;20030;-37
2022/02/02 08:43:58;;;;;;;7.03;3.47;;;;;;;;;;5034419;28;20030;-37
2022/02/02 08:46:33;;;;;;;6.80;4.18;;;;;;;;;;5034574;28;20025;-37
2022/02/02 08:48:59;;;;;;;6.57;4.05;;;;;;;;;;5033089;28;20032;-37
2022/02/02 08:51:30;;;;;;;7.30;3.30;;;;;;;;;;5034363;28;20024;-37
2022/02/02 08:54:10;;;;;;;7.15;3.20;;;;;;;;;;5034276;28;20479;-37
2022/02/02 09:01:46;;;;;;;6.88;4.30;;;;;;;;;;5034440;28;20021;-37
2022/02/02 09:06:55;;;;;;;4.00;2.90;;;;;;;;;;5034246;28;20059;-37
2022/02/02 09:09:33;;;;;;;7.30;3.63;;;;;;;;;;5033971;28;20519;-37
2022/02/02 09:21:06;;;;;;;5.40;3.08;;;;;;;;;;5033272;28;20029;-37
2022/02/02 09:23:29;;;;;;;7.28;3.92;;;;;;;;;;5033681;28;20091;-37
2022/02/02 09:31:50;;;;;;;6.95;4.07;;;;;;;;;;5033605;28;20082;-37
2022/02/02 09:34:18;;;;;;;8.88;4.82;;;;;;;;;;5033689;28;20033;-37
2022/02/02 09:36:45;;;;;;;4.70;3.53;;;;;;;;;;5033399;28;20463;-37
2022/02/02 09:39:18;;;;;;;10.90;4.32;;;;;;;;;;5032174;28;20041;-37
2022/02/02 09:41:48;;;;;;;6.95;4.47;;;;;;;;;;5033348;28;20066;-37
2022/02/02 09:44:17;;;;;;;12.02;4.55;;;;;;;;;;5033271;28;20064;-37
2022/02/02 09:49:26;;;;;;;10.55;4.40;;;;;;;;;;5033447;28;20022;-37
2022/02/02 09:52:13;;;;;;;9.32;4.32;;;;;;;;;;5033279;28;20520;-37
2022/02/02 09:58:19;;;;;;;6.18;3.15;;;;;;;;;;5033121;28;20029;-36
2022/02/02 10:00:39;;;;;;;11.35;4.25;;;;;;;;;;5033645;28;20056;-37
2022/02/02 10:05:59;;;;;;;6.53;3.30;;;;;;;;;;5033236;28;20030;-37
2022/02/02 10:11:48;;;;;;;7.82;3.40;;;;;;;;;;5033094;28;20072;-37
2022/02/02 10:14:26;;;;;;;13.13;3.95;;;;;;;;;;5032671;28;20029;-37
2022/02/02 10:16:51;;;;;;;4.38;3.25;;;;;;;;;;5032900;28;20041;-37
2022/02/02 10:19:18;;;;;;;8.45;2.78;;;;;;;;;;5032914;28;20018;-37
2022/02/02 10:21:44;;;;;;;8.98;3.63;;;;;;;;;;5032652;28;20376;-37
2022/02/02 10:24:11;;;;;;;3.65;2.97;;;;;;;;;;5032558;28;20036;-36
2022/02/02 10:27:03;;;;;;;6.93;3.88;;;;;;;;;;5032356;28;20148;-37
2022/02/02 10:29:36;;;;;;;6.68;3.22;;;;;;;;;;5032178;28;20519;-37
2022/02/02 10:32:02;;;;;;;5.75;3.47;;;;;;;;;;5031835;28;20037;-37
2022/02/02 10:34:27;;;;;;;9.15;3.00;;;;;;;;;;5031963;28;20033;-37
2022/02/02 10:37:11;;;;;;;7.70;2.92;;;;;;;;;;5032252;28;20036;-37
2022/02/02 10:39:48;;;;;;;3.95;2.40;;;;;;;;;;5032589;28;20033;-37
2022/02/02 10:42:31;;;;;;;3.60;2.53;;;;;;;;;;5031983;28;20042;-37
2022/02/02 10:45:00;;;;;;;7.25;3.33;;;;;;;;;;5032169;28;20636;-37
2022/02/02 10:47:32;;;;;;;9.68;3.22;;;;;;;;;;5032053;28;20029;-37
2022/02/02 10:50:23;;;;;;;3.97;2.23;;;;;;;;;;5032120;28;20036;-37
2022/02/02 10:56:04;;;;;;;2.80;2.58;;;;;;;;;;5030649;28;20091;-37
2022/02/02 11:01:32;;;;;;;5.40;3.45;;;;;;;;;;5031909;28;20048;-37
2022/02/02 11:06:43;;;;;;;6.50;2.20;;;;;;;;;;5031641;28;20552;-37
2022/02/02 11:09:09;;;;;;;5.32;2.75;;;;;;;;;;5031682;28;20026;-37
2022/02/02 11:11:43;;;;;;;9.48;2.25;;;;;;;;;;5032062;28;20033;-37
2022/02/02 11:14:13;;;;;;;5.22;2.58;;;;;;;;;;5031607;28;20480;-37
2022/02/02 11:16:43;;;;;;;5.75;2.40;;;;;;;;;;5031608;28;20025;-37
2022/02/02 11:19:13;;;;;;;5.57;2.40;;;;;;;;;;5031600;28;20041;-37
2022/02/02 11:21:39;;;;;;;3.42;2.72;;;;;;;;;;5031596;28;20112;-37
2022/02/02 11:24:15;;;;;;;2.75;1.98;;;;;;;;;;5031437;28;20109;-37
2022/02/02 11:26:45;;;;;;;4.88;2.20;;;;;;;;;;5031568;28;20060;-37
2022/02/02 11:29:30;;;;;;;6.22;2.83;;;;;;;;;;5031411;28;20558;-37
2022/02/02 11:32:06;;;;;;;11.25;2.55;;;;;;;;;;5031348;28;20117;-36
2022/02/02 11:34:32;;;;;;;5.40;2.35;;;;;;;;;;5031415;28;20040;-37
2022/02/02 11:36:58;;;;;;;3.90;2.25;;;;;;;;;;5031313;28;20013;-37
2022/02/02 11:39:57;;;;;;;3.55;2.28;;;;;;;;;;5031364;28;20022;-37
2022/02/02 11:43:27;;;;;;;6.40;3.10;;;;;;;;;;5031006;28;20045;-37
2022/02/02 11:45:48;;;;;;;3.42;2.42;;;;;;;;;;5033721;28;20076;-37
2022/02/02 11:48:32;;;;;;;8.77;2.40;;;;;;;;;;5031074;28;20511;-37
2022/02/02 11:50:58;;;;;;;4.45;2.10;;;;;;;;;;5031234;28;20423;-37
2022/02/02 11:53:43;;;;;;;5.30;2.58;;;;;;;;;;5031073;28;20036;-37
2022/02/02 11:56:08;;;;;;;8.98;2.80;;;;;;;;;;5030936;28;20116;-37
2022/02/02 11:58:34;;;;;;;4.50;2.45;;;;;;;;;;5031175;28;20100;-37
2022/02/02 12:03:58;;;;;;;5.93;3.13;;;;;;;;;;5031346;28;20045;-37
2022/02/02 12:49:24;;;;;;;4.22;2.00;;;;;;;;;;5030646;28;20048;-37
2022/02/02 12:57:21;;;;;;;2.45;1.52;;;;;;;;;;5033542;28;20029;-37
2022/02/02 13:02:16;;;;;;;2.80;1.85;;;;;;;;;;5034348;28;20476;-37
2022/02/02 13:04:46;;;;;;;2.28;1.30;;;;;;;;;;5034503;28;20378;-37
2022/02/02 13:07:16;;;;;;;3.03;1.98;;;;;;;;;;5034120;28;20471;-37
2022/02/02 13:09:51;;;;;;;3.72;2.08;;;;;;;;;;5034019;28;20033;-37
2022/02/02 13:12:21;;;;;;;2.55;2.25;;;;;;;;;;5033934;28;20063;-37
2022/02/02 13:15:10;;;;;;;2.22;1.45;;;;;;;;;;5034176;28;20407;-37
2022/02/02 13:17:46;;;;;;;4.75;1.92;;;;;;;;;;5033905;28;20483;-37
2022/02/02 13:20:15;;;;;;;4.10;1.98;;;;;;;;;;5034023;28;20052;-37
2022/02/02 13:22:51;;;;;;;3.50;2.13;;;;;;;;;;5033801;28;20071;-37
2022/02/02 13:25:28;;;;;;;5.30;2.17;;;;;;;;;;5033685;28;20037;-37
2022/02/02 13:27:56;;;;;;;4.90;1.63;;;;;;;;;;5033488;28;20037;-37
2022/02/02 13:30:31;;;;;;;8.55;1.95;;;;;;;;;;5032296;28;20025;-37
2022/02/02 13:33:07;;;;;;;4.35;1.90;;;;;;;;;;5033890;28;20029;-37
2022/02/02 13:35:39;;;;;;;8.02;2.67;;;;;;;;;;5033578;28;20029;-37
2022/02/02 13:38:22;;;;;;;4.13;2.00;;;;;;;;;;5033747;28;20364;-37
2022/02/02 13:44:06;;;;;;;2.15;1.67;;;;;;;;;;5033414;28;20036;-37
2022/02/02 13:46:58;;;;;;;3.55;2.42;;;;;;;;;;5033617;28;20041;-37
2022/02/02 13:52:28;;;;;;;3.72;1.95;;;;;;;;;;5033191;28;20037;-37
2022/02/02 13:55:10;;;;;;;4.70;2.55;;;;;;;;;;5033493;28;20034;-37
2022/02/02 13:58:00;;;;;;;3.78;1.52;;;;;;;;;;5033162;28;20057;-37
2022/02/02 14:00:51;;;;;;;2.95;1.92;;;;;;;;;;5033331;28;20495;-37
2022/02/02 14:33:15;;;;;;;2.15;1.45;;;;;;;;;;5032369;28;20034;-37
2022/02/02 14:35:44;;;;;;;1.42;1.30;;;;;;;;;;5032712;28;20478;-37
2022/02/02 14:38:11;;;;;;;4.60;1.10;;;;;;;;;;5032249;28;20037;-37
2022/02/02 14:43:24;;;;;;;2.17;1.33;;;;;;;;;;5032229;28;20511;-37
2022/02/02 14:45:54;;;;;;;3.78;1.90;;;;;;;;;;5032424;28;20091;-37
2022/02/02 14:48:38;;;;;;;0.65;0.65;;;;;;;;;;5032288;28;20049;-37
2022/02/02 14:56:45;;;;;;;1.85;1.15;;;;;;;;;;5032153;28;20033;-37
2022/02/02 15:05:28;;;;;;;0.73;0.68;;;;;;;;;;5031950;28;20444;-37
2022/02/02 15:29:27;;;;;;;2.15;0.73;;;;;;;;;;5031485;28;20040;-37
2022/02/02 15:31:52;;;;;;;1.20;0.73;;;;;;;;;;5031842;28;20033;-37
2022/02/02 15:34:27;;;;;;;0.50;0.50;;;;;;;;;;5031482;28;20022;-37
2022/02/02 15:40:06;;;;;;;0.65;0.63;;;;;;;;;;5029084;28;20045;-37
2022/02/02 15:43:04;;;;;;;0.60;0.60;;;;;;;;;;5031275;28;20053;-37
2022/02/02 16:04:35;;;;;;;0.40;0.40;;;;;;;;;;5031379;28;20022;-37
2022/02/02 16:07:04;;;;;;;1.48;0.82;;;;;;;;;;5030973;28;20455;-36
2022/02/02 16:09:39;;;;;;;0.40;0.30;;;;;;;;;;5031049;28;20490;-37
2022/02/02 16:12:11;;;;;;;0.35;0.35;;;;;;;;;;5031026;28;20064;-37
2022/02/02 16:14:44;;;;;;;0.30;0.30;;;;;;;;;;5031148;28;20311;-37
2022/02/02 16:17:20;;;;;;;0.30;0.30;;;;;;;;;;5029789;28;20173;-37
2022/02/02 16:39:06;;;;;;;0.65;0.38;;;;;;;;;;5041502;28;20110;-37
2022/02/02 16:44:16;;;;;;;0.20;0.20;;;;;;;;;;5034423;28;20033;-37
2022/02/02 16:46:42;;;;;;;0.98;0.30;;;;;;;;;;5034392;28;20094;-37
2022/02/02 16:49:09;;;;;;;0.80;0.32;;;;;;;;;;5034676;28;20037;-37
2022/02/02 16:51:35;;;;;;;0.75;0.40;;;;;;;;;;5034397;28;20022;-37
2022/02/02 16:54:03;;;;;;;1.63;0.40;;;;;;;;;;5034337;28;20067;-37
2022/02/02 16:56:43;;;;;;;0.20;0.20;;;;;;;;;;5034216;28;20330;-37
2022/02/02 17:28:20;;;;;;;1.05;0.30;;;;;;;;;;5033585;28;20030;-37
2022/02/02 17:32:13;;;;;;;0.30;0.30;;;;;;;;;;5033737;28;20484;-37
2022/02/02 17:35:05;;;;;;;2.10;0.35;;;;;;;;;;5033942;28;20043;-37
2022/02/02 17:45:59;;;;;;;0.52;0.40;;;;;;;;;;5033638;28;20064;-37
2022/02/02 18:02:55;;;;;;;0.32;0.32;;;;;;;;;;5032978;28;20032;-37
2022/02/02 18:16:21;;;;;;;2.75;1.65;;;;;;;;;;5032838;28;20417;-37
2022/02/02 18:19:17;;;;;;;3.22;1.23;;;;;;;;;;5032634;28;20041;-37
2022/02/02 18:21:19;;;;;;;2.45;1.42;;;;;;;;;;5035476;28;20052;-36
2022/02/02 18:23:56;;;;;;;3.65;1.15;;;;;;;;;;5032934;28;20067;-37
2022/02/02 18:29:33;;;;;;;4.45;1.88;;;;;;;;;;5032778;28;20430;-37
2022/02/02 18:34:39;;;;;;;4.00;2.47;;;;;;;;;;5032660;28;20030;-37
2022/02/02 18:55:00;;;;;;;2.70;1.60;;;;;;;;;;5031571;28;20175;-37
2022/02/02 19:00:13;;;;;;;5.78;1.90;;;;;;;;;;5032368;28;20021;-37
2022/02/02 19:02:58;;;;;;;2.15;1.35;;;;;;;;;;5032235;28;20049;-37
2022/02/02 19:40:33;;;;;;;3.10;1.80;;;;;;;;;;5031336;28;20068;-37
2022/02/02 19:56:44;;;;;;;4.57;2.35;;;;;;;;;;5031378;28;20387;-37
2022/02/02 20:04:58;;;;;;;5.70;2.17;;;;;;;;;;5050162;28;20037;-37
2022/02/02 20:12:38;;;;;;;2.73;2.03;;;;;;;;;;5035019;28;20518;-37
2022/02/02 20:15:04;;;;;;;5.40;2.33;;;;;;;;;;5035010;28;20267;-37
2022/02/02 20:17:32;;;;;;;4.43;1.67;;;;;;;;;;5035233;28;20029;-37
2022/02/02 20:20:02;;;;;;;2.50;1.67;;;;;;;;;;5034966;28;20483;-37
2022/02/02 20:22:30;;;;;;;7.50;2.42;;;;;;;;;;5034819;28;20476;-37
2022/02/02 20:25:01;;;;;;;3.95;1.73;;;;;;;;;;5034883;28;20025;-37
2022/02/02 20:27:29;;;;;;;3.63;1.90;;;;;;;;;;5035025;28;20059;-37
2022/02/02 20:29:54;;;;;;;7.88;1.98;;;;;;;;;;5034805;28;20502;-37
2022/02/02 20:32:27;;;;;;;3.45;1.83;;;;;;;;;;5034784;28;20029;-37
2022/02/02 20:34:53;;;;;;;1.48;1.38;;;;;;;;;;5034663;28;20357;-37
2022/02/02 20:37:19;;;;;;;3.03;2.13;;;;;;;;;;5034922;28;20032;-37
2022/02/02 20:39:57;;;;;;;3.67;1.95;;;;;;;;;;5034673;28;20025;-37
2022/02/02 21:04:28;;;;;;;3.25;2.10;;;;;;;;;;5034065;28;20033;-37
2022/02/02 21:09:44;;;;;;;3.58;2.15;;;;;;;;;;5034371;28;20017;-37
2022/02/02 21:14:59;;;;;;;5.47;2.25;;;;;;;;;;5033894;28;20009;-37
2022/02/02 21:17:27;;;;;;;3.58;2.45;;;;;;;;;;5032792;28;20127;-37
2022/02/02 21:20:06;;;;;;;6.45;2.15;;;;;;;;;;5033928;28;20210;-37
2022/02/02 21:22:35;;;;;;;3.95;2.03;;;;;;;;;;5034134;28;20071;-37
2022/02/02 21:27:39;;;;;;;2.88;1.88;;;;;;;;;;5033569;28;20048;-37
2022/02/02 21:30:06;;;;;;;5.25;2.15;;;;;;;;;;5033968;28;20022;-37
2022/02/02 21:32:31;;;;;;;3.40;1.70;;;;;;;;;;5033851;28;20053;-37
2022/02/02 21:35:03;;;;;;;2.72;1.58;;;;;;;;;;5033561;28;20543;-37
2022/02/02 21:37:32;;;;;;;3.95;1.90;;;;;;;;;;5033612;28;20032;-37
2022/02/02 21:40:15;;;;;;;2.17;1.42;;;;;;;;;;5033500;28;20433;-37
2022/02/02 21:42:42;;;;;;;3.28;2.17;;;;;;;;;;5033521;28;20124;-37
2022/02/02 21:45:07;;;;;;;4.38;2.78;;;;;;;;;;5033516;28;20075;-37
2022/02/02 21:47:33;;;;;;;2.75;1.58;;;;;;;;;;5033245;28;20041;-37
2022/02/02 21:49:58;;;;;;;2.47;1.85;;;;;;;;;;5033613;28;20099;-37
2022/02/02 21:52:24;;;;;;;4.07;1.98;;;;;;;;;;5033565;28;20476;-37
2022/02/02 21:54:49;;;;;;;3.22;1.90;;;;;;;;;;5033517;28;20013;-37
2022/02/02 21:57:15;;;;;;;1.63;1.52;;;;;;;;;;5033178;28;20415;-37
2022/02/02 21:59:42;;;;;;;2.15;1.67;;;;;;;;;;5032204;28;20022;-37
2022/02/02 22:02:07;;;;;;;3.42;1.83;;;;;;;;;;5033121;28;20025;-37
2022/02/02 22:04:33;;;;;;;4.85;2.08;;;;;;;;;;5032975;28;20149;-37
2022/02/02 22:06:58;;;;;;;3.17;1.70;;;;;;;;;;5033248;28;20049;-37
2022/02/02 22:09:24;;;;;;;1.70;1.25;;;;;;;;;;5031933;28;20063;-37
2022/02/02 22:11:50;;;;;;;2.15;1.33;;;;;;;;;;5033303;28;20082;-38
2022/02/02 22:14:19;;;;;;;3.35;2.10;;;;;;;;;;5032802;28;20368;-37
2022/02/02 22:16:47;;;;;;;3.95;1.75;;;;;;;;;;5032827;28;20033;-37
2022/02/02 22:19:13;;;;;;;3.17;2.22;;;;;;;;;;5032806;28;20467;-37
2022/02/02 22:21:38;;;;;;;2.40;1.50;;;;;;;;;;5032727;28;20155;-37
2022/02/02 22:24:04;;;;;;;3.25;1.88;;;;;;;;;;5032667;28;20040;-37
2022/02/02 22:26:30;;;;;;;4.53;2.15;;;;;;;;;;5032427;28;20052;-37
2022/02/02 22:28:55;;;;;;;4.78;2.03;;;;;;;;;;5032507;28;20371;-37
2022/02/02 22:31:21;;;;;;;3.58;2.13;;;;;;;;;;5032859;28;20033;-37
2022/02/02 22:33:46;;;;;;;3.45;1.30;;;;;;;;;;5032860;28;20028;-37
2022/02/02 22:36:12;;;;;;;5.32;1.70;;;;;;;;;;5032411;28;20381;-37
2022/02/02 22:38:38;;;;;;;2.47;1.40;;;;;;;;;;5032778;28;20063;-37
2022/02/02 22:41:04;;;;;;;2.63;1.70;;;;;;;;;;5032115;28;20045;-38
2022/02/02 22:43:32;;;;;;;1.33;1.05;;;;;;;;;;5032536;28;20076;-37
2022/02/02 22:45:59;;;;;;;3.65;1.30;;;;;;;;;;5032194;28;20041;-37
2022/02/02 22:48:25;;;;;;;2.03;1.17;;;;;;;;;;5032136;28;20076;-37
2022/02/02 22:50:52;;;;;;;2.72;1.63;;;;;;;;;;5032476;28;20034;-37
2022/02/02 22:53:21;;;;;;;1.92;1.55;;;;;;;;;;5032054;28;20014;-37
2022/02/02 22:55:46;;;;;;;2.05;1.25;;;;;;;;;;5032181;28;20033;-37
2022/02/02 22:58:12;;;;;;;1.75;1.48;;;;;;;;;;5032035;28;20025;-37
2022/02/02 23:00:39;;;;;;;1.80;1.13;;;;;;;;;;5032244;28;20060;-37
2022/02/02 23:03:07;;;;;;;2.38;1.73;;;;;;;;;;5031992;28;20030;-38
2022/02/02 23:08:00;;;;;;;2.78;1.63;;;;;;;;;;5031907;28;20033;-37
2022/02/02 23:10:26;;;;;;;5.60;1.88;;;;;;;;;;5031789;28;20040;-37
2022/02/02 23:12:51;;;;;;;2.72;1.55;;;;;;;;;;5032341;28;20025;-37
2022/02/02 23:15:25;;;;;;;2.55;1.67;;;;;;;;;;5031918;28;20034;-37
2022/02/02 23:17:51;;;;;;;1.95;1.85;;;;;;;;;;5031719;28;20472;-37
2022/02/02 23:20:16;;;;;;;2.83;1.95;;;;;;;;;;5031574;28;20031;-37
2022/02/02 23:22:43;;;;;;;2.95;1.40;;;;;;;;;;5031933;28;20048;-37
2022/02/02 23:25:12;;;;;;;1.90;1.17;;;;;;;;;;5031572;28;20021;-37
2022/02/02 23:27:38;;;;;;;2.90;1.60;;;;;;;;;;5031528;28;20033;-37
2022/02/02 23:30:07;;;;;;;3.38;1.58;;;;;;;;;;5031571;28;20079;-37
2022/02/02 23:32:33;;;;;;;2.63;1.52;;;;;;;;;;5031473;28;20491;-37
2022/02/02 23:34:58;;;;;;;4.95;1.90;;;;;;;;;;5031777;28;20116;-38
2022/02/02 23:37:26;;;;;;;2.05;1.20;;;;;;;;;;5031454;28;20018;-37
2022/02/02 23:39:52;;;;;;;3.22;1.55;;;;;;;;;;5031237;28;20021;-37
2022/02/02 23:42:23;;;;;;;8.77;1.85;;;;;;;;;;5031264;28;20510;-37
2022/02/02 23:44:49;;;;;;;5.10;2.17;;;;;;;;;;5031320;28;20069;-37
2022/02/02 23:47:16;;;;;;;2.88;1.98;;;;;;;;;;5031109;28;20116;-37
2022/02/02 23:49:51;;;;;;;6.47;1.88;;;;;;;;;;5031328;28;20057;-37
2022/02/02 23:52:22;;;;;;;3.08;1.70;;;;;;;;;;5029885;28;20388;-38
2022/02/02 23:54:47;;;;;;;1.92;1.80;;;;;;;;;;5031238;28;20080;-37
2022/02/02 23:57:29;;;;;;;1.30;0.90;;;;;;;;;;5031152;28;20014;-37
